createdAt,value
2022-08-26T00:01:56.866Z,100.00
2022-08-26T00:04:25.480Z,100.00
2022-08-26T00:06:54.753Z,100.00
2022-08-26T00:09:23.560Z,100.00
2022-08-26T00:11:52.554Z,100.00
2022-08-26T00:14:19.387Z,100.00
2022-08-26T00:16:47.479Z,100.00
2022-08-26T00:19:19.132Z,100.00
2022-08-26T00:21:48.651Z,100.00
2022-08-26T00:24:16.784Z,100.00
2022-08-26T00:26:44.207Z,100.00
2022-08-26T00:29:12.399Z,100.00
2022-08-26T00:31:40.790Z,100.00
2022-08-26T00:34:09.550Z,100.00
2022-08-26T00:36:39.790Z,100.00
2022-08-26T00:39:07.749Z,100.00
2022-08-26T00:41:36.007Z,100.00
2022-08-26T00:44:03.155Z,100.00
2022-08-26T00:46:33.709Z,100.00
2022-08-26T00:49:11.984Z,100.00
2022-08-26T00:51:52.335Z,100.00
2022-08-26T00:54:22.936Z,100.00
2022-08-26T00:56:59.917Z,100.00
2022-08-26T00:59:29.291Z,100.00
2022-08-26T01:02:02.895Z,100.00
2022-08-26T01:04:31.487Z,100.00
2022-08-26T01:07:00.491Z,100.00
2022-08-26T01:09:28.155Z,100.00
2022-08-26T01:11:57.636Z,100.00
2022-08-26T01:14:26.937Z,100.00
2022-08-26T01:16:54.570Z,100.00
2022-08-26T01:19:32.637Z,100.00
2022-08-26T01:22:05.579Z,100.00
2022-08-26T01:24:32.614Z,100.00
2022-08-26T01:27:05.324Z,100.00
2022-08-26T01:29:34.598Z,100.00
2022-08-26T01:32:05.102Z,100.00
2022-08-26T01:34:36.868Z,100.00
2022-08-26T01:37:17.123Z,100.00
2022-08-26T01:39:50.969Z,100.00
2022-08-26T01:42:21.193Z,100.00
2022-08-26T01:44:59.679Z,100.00
2022-08-26T01:47:30.204Z,100.00
2022-08-26T01:49:59.914Z,100.00
2022-08-26T01:52:29.314Z,100.00
2022-08-26T01:54:59.162Z,100.00
2022-08-26T01:57:27.284Z,100.00
2022-08-26T01:59:58.194Z,100.00
2022-08-26T02:02:25.091Z,100.00
2022-08-26T02:05:01.757Z,100.00
2022-08-26T02:07:29.486Z,100.00
2022-08-26T02:09:56.901Z,100.00
2022-08-26T02:12:25.899Z,100.00
2022-08-26T02:14:58.498Z,100.00
2022-08-26T02:17:33.884Z,100.00
2022-08-26T02:20:02.591Z,100.00
2022-08-26T02:22:30.920Z,100.00
2022-08-26T02:25:02.276Z,100.00
2022-08-26T02:27:33.698Z,100.00
2022-08-26T02:30:17.549Z,100.00
2022-08-26T02:32:45.293Z,100.00
2022-08-26T02:35:20.070Z,100.00
2022-08-26T02:37:49.423Z,100.00
2022-08-26T02:40:20.783Z,100.00
2022-08-26T02:42:49.156Z,100.00
2022-08-26T02:45:16.341Z,100.00
2022-08-26T02:47:52.894Z,100.00
2022-08-26T02:50:20.926Z,100.00
2022-08-26T02:52:48.536Z,100.00
2022-08-26T02:55:15.638Z,100.00
2022-08-26T02:57:42.881Z,100.00
2022-08-26T03:00:11.940Z,100.00
2022-08-26T03:02:38.780Z,100.00
2022-08-26T03:05:06.476Z,100.00
2022-08-26T03:07:33.353Z,100.00
2022-08-26T03:10:01.056Z,100.00
2022-08-26T03:12:34.548Z,100.00
2022-08-26T03:15:01.627Z,100.00
2022-08-26T03:17:28.465Z,100.00
2022-08-26T03:19:57.251Z,100.00
2022-08-26T03:22:25.247Z,100.00
2022-08-26T03:24:52.676Z,100.00
2022-08-26T03:27:19.505Z,100.00
2022-08-26T03:30:04.801Z,100.00
2022-08-26T03:32:31.645Z,100.00
2022-08-26T03:34:58.431Z,100.00
2022-08-26T03:37:25.224Z,100.00
2022-08-26T03:39:52.834Z,100.00
2022-08-26T03:42:21.332Z,100.00
2022-08-26T03:44:48.754Z,100.00
2022-08-26T03:47:15.833Z,100.00
2022-08-26T03:49:42.690Z,100.00
2022-08-26T03:52:10.526Z,100.00
2022-08-26T03:54:37.760Z,100.00
2022-08-26T03:57:04.809Z,100.00
2022-08-26T03:59:32.207Z,100.00
2022-08-26T04:01:59.049Z,100.00
2022-08-26T04:04:26.000Z,100.00
2022-08-26T04:07:01.001Z,100.00
2022-08-26T04:09:27.951Z,100.00
2022-08-26T04:11:55.661Z,100.00
2022-08-26T04:14:25.843Z,100.00
2022-08-26T04:16:55.402Z,100.00
2022-08-26T04:19:23.516Z,100.00
2022-08-26T04:21:53.118Z,100.00
2022-08-26T04:24:23.922Z,100.00
2022-08-26T04:26:51.523Z,100.00
2022-08-26T04:29:23.909Z,100.00
2022-08-26T04:31:55.227Z,100.00
2022-08-26T04:34:24.581Z,100.00
2022-08-26T04:36:54.225Z,100.00
2022-08-26T04:39:21.015Z,100.00
2022-08-26T04:41:48.820Z,100.00
2022-08-26T04:44:18.652Z,100.00
2022-08-26T04:46:45.817Z,100.00
2022-08-26T04:49:13.196Z,100.00
2022-08-26T04:51:40.355Z,100.00
2022-08-26T04:54:07.499Z,100.00
2022-08-26T04:56:39.874Z,100.00
2022-08-26T04:59:17.221Z,100.00
2022-08-26T05:01:48.674Z,100.00
2022-08-26T05:04:18.895Z,100.00
2022-08-26T05:06:49.554Z,100.00
2022-08-26T05:09:18.575Z,100.00
2022-08-26T05:11:48.582Z,100.00
2022-08-26T05:14:20.260Z,100.00
2022-08-26T05:16:47.974Z,100.00
2022-08-26T05:19:18.700Z,100.00
2022-08-26T05:21:47.118Z,100.00
2022-08-26T05:24:14.445Z,100.00
2022-08-26T05:26:41.337Z,100.00
2022-08-26T05:29:08.113Z,100.00
2022-08-26T05:31:35.584Z,100.00
2022-08-26T05:34:04.666Z,100.00
2022-08-26T05:36:34.926Z,100.00
2022-08-26T05:39:05.070Z,100.00
2022-08-26T05:41:36.168Z,100.00
2022-08-26T05:44:06.756Z,100.00
2022-08-26T05:46:35.136Z,100.00
2022-08-26T05:49:03.964Z,100.00
2022-08-26T05:51:31.072Z,100.00
2022-08-26T05:53:58.218Z,100.00
2022-08-26T05:56:27.555Z,100.00
2022-08-26T05:58:58.512Z,100.00
2022-08-26T06:01:28.431Z,100.00
2022-08-26T06:04:01.376Z,100.00
2022-08-26T06:06:34.700Z,100.00
2022-08-26T06:09:05.598Z,100.00
2022-08-26T06:11:33.426Z,100.00
2022-08-26T06:14:04.472Z,100.00
2022-08-26T06:16:34.751Z,100.00
2022-08-26T06:19:03.308Z,100.00
2022-08-26T06:21:33.523Z,100.00
2022-08-26T06:24:27.265Z,100.00
2022-08-26T06:27:01.492Z,100.00
2022-08-26T06:29:31.102Z,100.00
2022-08-26T06:31:58.426Z,100.00
2022-08-26T06:34:30.418Z,100.00
2022-08-26T06:36:59.772Z,100.00
2022-08-26T06:39:31.144Z,100.00
2022-08-26T06:41:59.282Z,100.00
2022-08-26T06:44:27.243Z,100.00
2022-08-26T06:46:54.222Z,100.00
2022-08-26T06:49:27.198Z,100.00
2022-08-26T06:52:00.898Z,100.00
2022-08-26T06:54:30.356Z,100.00
2022-08-26T06:56:57.560Z,100.00
2022-08-26T06:59:25.529Z,100.00
2022-08-26T07:01:52.605Z,100.00
2022-08-26T07:04:22.381Z,100.00
2022-08-26T07:06:52.647Z,100.00
2022-08-26T07:09:22.232Z,100.00
2022-08-26T07:11:49.609Z,100.00
2022-08-26T07:14:19.412Z,100.00
2022-08-26T07:16:49.714Z,100.00
2022-08-26T07:19:27.502Z,100.00
2022-08-26T07:22:02.157Z,100.00
2022-08-26T07:24:30.032Z,100.00
2022-08-26T07:27:02.955Z,100.00
2022-08-26T07:29:32.406Z,100.00
2022-08-26T07:31:59.921Z,100.00
2022-08-26T07:34:27.408Z,97.76
2022-08-26T07:36:55.251Z,97.48
2022-08-26T07:39:22.752Z,96.60
2022-08-26T07:41:50.428Z,94.87
2022-08-26T07:44:18.093Z,92.33
2022-08-26T07:46:52.060Z,92.47
2022-08-26T07:49:21.437Z,92.88
2022-08-26T07:51:49.806Z,92.04
2022-08-26T07:54:17.114Z,91.32
2022-08-26T07:56:44.648Z,89.62
2022-08-26T07:59:13.646Z,87.28
2022-08-26T08:01:41.437Z,86.93
2022-08-26T08:04:17.821Z,87.08
2022-08-26T08:06:45.817Z,79.17
2022-08-26T08:09:15.596Z,78.15
2022-08-26T08:11:45.223Z,78.05
2022-08-26T08:14:13.507Z,76.73
2022-08-26T08:16:45.933Z,74.35
2022-08-26T08:19:15.016Z,73.42
2022-08-26T08:21:43.434Z,73.09
2022-08-26T08:24:11.733Z,73.95
2022-08-26T08:26:39.407Z,71.65
2022-08-26T08:29:08.082Z,72.57
2022-08-26T08:34:22.907Z,69.11
2022-08-26T08:36:53.379Z,68.69
2022-08-26T08:39:22.020Z,68.27
2022-08-26T08:41:59.951Z,67.82
2022-08-26T08:47:19.934Z,68.03
2022-08-26T08:49:47.795Z,65.43
2022-08-26T08:52:29.802Z,62.46
2022-08-26T08:54:57.220Z,59.51
2022-08-26T08:57:55.926Z,57.52
2022-08-26T09:00:39.750Z,57.03
2022-08-26T09:03:48.235Z,55.64
2022-08-26T09:06:18.914Z,55.03
2022-08-26T09:08:50.477Z,55.52
2022-08-26T09:11:20.070Z,53.76
2022-08-26T09:13:53.302Z,56.05
2022-08-26T09:16:24.443Z,55.51
2022-08-26T09:19:11.290Z,51.52
2022-08-26T09:21:38.258Z,49.57
2022-08-26T09:24:06.307Z,51.39
2022-08-26T09:26:38.986Z,49.17
2022-08-26T09:29:11.585Z,45.70
2022-08-26T09:31:42.202Z,44.21
2022-08-26T09:34:17.269Z,42.50
2022-08-26T09:36:56.243Z,42.79
2022-08-26T09:39:22.985Z,43.70
2022-08-26T09:42:07.019Z,42.95
2022-08-26T09:44:35.724Z,43.92
2022-08-26T09:47:05.810Z,41.21
2022-08-26T09:49:36.287Z,42.11
2022-08-26T09:52:15.608Z,41.16
2022-08-26T09:54:46.127Z,41.34
2022-08-26T09:57:32.245Z,40.67
2022-08-26T10:00:01.332Z,40.72
2022-08-26T10:02:41.729Z,42.19
2022-08-26T10:05:18.974Z,40.91
2022-08-26T10:07:50.225Z,40.66
2022-08-26T10:10:35.340Z,40.32
2022-08-26T10:13:07.843Z,40.92
2022-08-26T10:16:00.929Z,38.93
2022-08-26T10:18:35.548Z,37.96
2022-08-26T10:21:23.451Z,37.08
2022-08-26T10:23:53.861Z,37.14
2022-08-26T10:26:53.406Z,35.41
2022-08-26T10:29:31.242Z,35.92
2022-08-26T10:32:03.432Z,36.24
2022-08-26T10:34:32.645Z,35.53
2022-08-26T10:37:14.932Z,34.00
2022-08-26T10:40:00.961Z,32.97
2022-08-26T10:42:33.280Z,33.36
2022-08-26T10:45:06.717Z,33.53
2022-08-26T10:47:47.695Z,31.58
2022-08-26T10:50:14.972Z,31.14
2022-08-26T10:53:09.341Z,31.72
2022-08-26T10:55:46.160Z,31.79
2022-08-26T10:58:32.010Z,32.41
2022-08-26T11:01:50.788Z,31.01
2022-08-26T11:04:22.371Z,31.47
2022-08-26T11:06:50.138Z,32.07
2022-08-26T11:09:45.198Z,30.79
2022-08-26T11:12:58.143Z,31.91
2022-08-26T11:15:25.074Z,30.17
2022-08-26T11:17:51.900Z,29.39
2022-08-26T11:20:27.868Z,28.81
2022-08-26T11:22:56.409Z,29.72
2022-08-26T11:25:30.170Z,27.05
2022-08-26T11:28:00.561Z,25.92
2022-08-26T11:30:42.778Z,26.37
2022-08-26T11:33:10.488Z,23.59
2022-08-26T11:35:37.754Z,24.01
2022-08-26T11:38:15.399Z,22.63
2022-08-26T11:40:42.750Z,23.82
2022-08-26T11:43:19.920Z,22.85
2022-08-26T11:46:08.644Z,23.96
2022-08-26T11:48:37.523Z,22.74
2022-08-26T11:51:09.880Z,24.58
2022-08-26T11:53:42.701Z,24.32
2022-08-26T11:56:17.543Z,23.74
2022-08-26T11:58:46.921Z,23.06
2022-08-26T12:01:25.971Z,23.37
2022-08-26T12:03:56.230Z,23.27
2022-08-26T12:06:28.423Z,21.84
2022-08-26T12:08:59.886Z,23.69
2022-08-26T12:11:34.117Z,22.79
2022-08-26T12:14:08.031Z,22.97
2022-08-26T12:16:38.746Z,21.84
2022-08-26T12:19:38.297Z,21.96
2022-08-26T12:22:27.682Z,22.10
2022-08-26T12:24:59.036Z,23.36
2022-08-26T12:27:34.764Z,22.83
2022-08-26T12:30:05.097Z,24.68
2022-08-26T12:32:37.327Z,25.81
2022-08-26T12:35:22.354Z,25.27
2022-08-26T12:37:53.233Z,24.80
2022-08-26T12:40:39.993Z,23.20
2022-08-26T12:43:08.453Z,24.01
2022-08-26T12:45:43.173Z,25.41
2022-08-26T12:48:29.465Z,24.71
2022-08-26T12:50:57.290Z,24.28
2022-08-26T12:53:27.196Z,23.44
2022-08-26T12:55:57.140Z,23.08
2022-08-26T12:58:35.024Z,23.49
2022-08-26T13:01:05.030Z,23.31
2022-08-26T13:03:34.770Z,22.93
2022-08-26T13:06:16.701Z,22.48
2022-08-26T13:08:48.128Z,22.66
2022-08-26T13:11:25.025Z,22.12
2022-08-26T13:14:00.728Z,22.51
2022-08-26T13:16:29.333Z,21.07
2022-08-26T13:18:59.116Z,20.57
2022-08-26T13:21:37.311Z,20.11
2022-08-26T13:24:14.148Z,20.64
2022-08-26T13:26:44.822Z,20.94
2022-08-26T13:29:12.771Z,20.64
2022-08-26T13:31:42.167Z,20.36
2022-08-26T13:34:12.216Z,21.09
2022-08-26T13:36:39.291Z,20.24
2022-08-26T13:39:06.530Z,20.46
2022-08-26T13:41:33.490Z,19.58
2022-08-26T13:44:00.336Z,20.19
2022-08-26T13:46:28.359Z,19.31
2022-08-26T13:48:56.964Z,18.98
2022-08-26T13:51:26.050Z,17.76
2022-08-26T13:53:53.343Z,18.89
2022-08-26T13:56:23.022Z,18.86
2022-08-26T13:58:50.021Z,18.62
2022-08-26T14:01:17.475Z,18.63
2022-08-26T14:03:44.669Z,20.44
2022-08-26T14:06:12.501Z,20.35
2022-08-26T14:08:40.043Z,20.36
2022-08-26T14:11:07.079Z,19.88
2022-08-26T14:13:34.126Z,19.90
2022-08-26T14:16:04.453Z,20.49
2022-08-26T14:18:38.405Z,21.34
2022-08-26T14:21:08.801Z,21.60
2022-08-26T14:23:35.738Z,21.52
2022-08-26T14:26:08.139Z,20.83
2022-08-26T14:28:36.257Z,19.79
2022-08-26T14:31:04.514Z,19.15
2022-08-26T14:33:37.280Z,18.25
2022-08-26T14:36:26.704Z,17.67
2022-08-26T14:38:55.684Z,18.17
2022-08-26T14:41:25.158Z,17.65
2022-08-26T14:44:00.188Z,17.44
2022-08-26T14:46:32.510Z,18.20
2022-08-26T14:49:02.447Z,19.43
2022-08-26T14:51:30.356Z,20.61
2022-08-26T14:54:12.183Z,20.50
2022-08-26T14:56:51.323Z,20.96
2022-08-26T14:59:24.006Z,22.87
2022-08-26T15:01:51.979Z,22.41
2022-08-26T15:04:19.636Z,23.13
2022-08-26T15:06:46.949Z,21.84
2022-08-26T15:09:13.937Z,21.45
2022-08-26T15:11:40.815Z,21.45
2022-08-26T15:14:07.968Z,21.64
2022-08-26T15:16:47.303Z,20.96
2022-08-26T15:19:15.410Z,20.78
2022-08-26T15:21:43.358Z,20.05
2022-08-26T15:24:10.168Z,20.58
2022-08-26T15:26:37.062Z,19.48
2022-08-26T15:29:05.273Z,19.91
2022-08-26T15:31:36.103Z,20.22
2022-08-26T15:34:08.553Z,21.20
2022-08-26T15:36:38.570Z,21.74
2022-08-26T15:39:07.676Z,21.42
2022-08-26T15:41:34.742Z,21.94
2022-08-26T15:44:03.533Z,22.43
2022-08-26T15:46:31.572Z,22.54
2022-08-26T15:48:58.625Z,22.14
2022-08-26T15:51:28.339Z,22.15
2022-08-26T15:53:59.083Z,21.99
2022-08-26T15:56:27.723Z,21.81
2022-08-26T15:58:56.253Z,21.80
2022-08-26T16:01:27.387Z,22.64
2022-08-26T16:03:56.148Z,21.10
2022-08-26T16:06:27.515Z,21.67
2022-08-26T16:08:56.172Z,21.56
2022-08-26T16:11:24.367Z,21.21
2022-08-26T16:13:51.631Z,21.35
2022-08-26T16:16:19.079Z,21.42
2022-08-26T16:18:46.116Z,22.12
2022-08-26T16:21:22.598Z,21.74
2022-08-26T16:23:49.923Z,22.26
2022-08-26T16:26:24.332Z,22.52
2022-08-26T16:28:51.152Z,24.02
2022-08-26T16:31:18.714Z,23.21
2022-08-26T16:33:46.335Z,23.49
2022-08-26T16:36:14.205Z,23.24
2022-08-26T16:38:41.854Z,24.13
2022-08-26T16:41:09.319Z,24.62
2022-08-26T16:43:36.840Z,25.09
2022-08-26T16:46:07.037Z,25.61
2022-08-26T16:48:35.295Z,25.94
2022-08-26T16:51:02.269Z,26.80
2022-08-26T16:53:29.074Z,27.26
2022-08-26T16:55:55.881Z,27.94
2022-08-26T16:58:22.739Z,28.83
2022-08-26T17:00:49.902Z,29.39
2022-08-26T17:03:16.930Z,30.23
2022-08-26T17:05:43.699Z,30.68
2022-08-26T17:08:10.834Z,31.56
2022-08-26T17:10:37.986Z,32.35
2022-08-26T17:13:05.091Z,33.52
2022-08-26T17:15:32.522Z,33.64
2022-08-26T17:17:59.439Z,34.45
2022-08-26T17:20:26.705Z,35.02
2022-08-26T17:22:55.044Z,35.64
2022-08-26T17:25:28.440Z,36.42
2022-08-26T17:30:27.954Z,38.78
2022-08-26T17:32:57.674Z,39.69
2022-08-26T17:35:24.750Z,40.88
2022-08-26T17:37:52.721Z,41.44
2022-08-26T17:40:24.339Z,42.55
2022-08-26T17:42:51.893Z,43.29
2022-08-26T17:47:50.693Z,44.79
2022-08-26T17:50:18.615Z,44.77
2022-08-26T17:52:46.719Z,45.20
2022-08-26T17:55:16.854Z,45.81
2022-08-26T17:57:44.546Z,46.10
2022-08-26T18:00:23.537Z,46.63
2022-08-26T18:02:50.347Z,46.62
2022-08-26T18:05:17.856Z,47.37
2022-08-26T18:07:44.919Z,47.33
2022-08-26T18:10:15.420Z,47.92
2022-08-26T18:12:43.050Z,48.40
2022-08-26T18:15:11.981Z,49.15
2022-08-26T18:17:39.576Z,49.31
2022-08-26T18:20:12.686Z,49.76
2022-08-26T18:22:39.905Z,50.36
2022-08-26T18:25:08.086Z,50.44
2022-08-26T18:27:37.991Z,50.94
2022-08-26T18:30:09.815Z,50.90
2022-08-26T18:32:39.304Z,51.92
2022-08-26T18:35:06.806Z,52.14
2022-08-26T18:37:34.318Z,52.43
2022-08-26T18:40:01.269Z,52.48
2022-08-26T18:42:28.829Z,52.56
2022-08-26T18:44:55.652Z,53.17
2022-08-26T18:47:22.879Z,53.85
2022-08-26T18:49:49.836Z,55.88
2022-08-26T18:52:16.953Z,56.01
2022-08-26T18:54:44.229Z,56.95
2022-08-26T18:57:12.217Z,56.66
2022-08-26T18:59:39.151Z,58.77
2022-08-26T19:02:06.142Z,58.24
2022-08-26T19:04:33.191Z,58.47
2022-08-26T19:07:00.190Z,59.99
2022-08-26T19:09:27.396Z,59.39
2022-08-26T19:14:26.659Z,59.54
2022-08-26T19:16:53.911Z,59.96
2022-08-26T19:19:24.108Z,60.32
2022-08-26T19:21:51.906Z,60.75
2022-08-26T19:24:19.962Z,61.74
2022-08-26T19:26:51.428Z,62.63
2022-08-26T19:29:26.901Z,62.56
2022-08-26T19:31:53.887Z,63.36
2022-08-26T19:34:21.068Z,64.01
2022-08-26T19:36:48.773Z,66.07
2022-08-26T19:39:15.740Z,66.59
2022-08-26T19:41:42.721Z,68.35
2022-08-26T19:44:13.133Z,68.07
2022-08-26T19:46:40.629Z,69.32
2022-08-26T19:49:07.499Z,70.24
2022-08-26T19:51:35.610Z,69.01
2022-08-26T19:54:02.897Z,69.60
2022-08-26T19:56:29.827Z,70.55
2022-08-26T19:58:57.118Z,71.54
2022-08-26T20:01:24.281Z,72.08
2022-08-26T20:03:51.462Z,72.29
2022-08-26T20:06:20.406Z,73.92
2022-08-26T20:08:47.602Z,72.97
2022-08-26T20:11:18.978Z,73.00
2022-08-26T20:13:47.191Z,73.66
2022-08-26T20:16:15.394Z,73.41
2022-08-26T20:19:02.151Z,72.53
2022-08-26T20:21:34.142Z,73.32
2022-08-26T20:24:14.943Z,73.28
2022-08-26T20:26:43.665Z,73.42
2022-08-26T20:29:13.320Z,73.87
2022-08-26T20:31:40.961Z,74.96
2022-08-26T20:34:07.970Z,75.03
2022-08-26T20:36:35.072Z,75.36
2022-08-26T20:39:02.391Z,76.99
2022-08-26T20:41:29.298Z,77.82
2022-08-26T20:43:56.631Z,77.28
2022-08-26T20:46:25.228Z,77.87
2022-08-26T20:48:53.646Z,77.74
2022-08-26T20:51:23.598Z,76.84
2022-08-26T20:53:51.136Z,79.72
2022-08-26T20:56:23.624Z,80.48
2022-08-26T20:58:58.438Z,80.42
2022-08-26T21:01:30.618Z,80.86
2022-08-26T21:03:57.562Z,82.54
2022-08-26T21:06:24.390Z,83.47
2022-08-26T21:08:51.417Z,83.50
2022-08-26T21:11:20.535Z,83.84
2022-08-26T21:14:04.406Z,84.40
2022-08-26T21:16:36.759Z,85.31
2022-08-26T21:19:08.470Z,86.91
2022-08-26T21:21:35.343Z,86.77
2022-08-26T21:24:03.131Z,87.23
2022-08-26T21:26:29.906Z,87.89
2022-08-26T21:28:56.766Z,88.57
2022-08-26T21:31:25.206Z,89.40
2022-08-26T21:33:52.678Z,90.70
2022-08-26T21:36:19.657Z,91.51
2022-08-26T21:38:46.455Z,90.95
2022-08-26T21:41:19.387Z,90.31
2022-08-26T21:43:47.896Z,91.25
2022-08-26T21:46:18.032Z,91.48
2022-08-26T21:48:59.049Z,90.86
2022-08-26T21:51:28.645Z,91.65
2022-08-26T21:53:57.230Z,91.47
2022-08-26T21:56:27.941Z,92.49
2022-08-26T21:58:56.429Z,93.36
2022-08-26T22:01:26.007Z,93.45
2022-08-26T22:03:53.596Z,93.84
2022-08-26T22:06:24.008Z,94.91
2022-08-26T22:08:51.814Z,94.69
2022-08-26T22:11:18.966Z,95.63
2022-08-26T22:13:46.862Z,97.29
2022-08-26T22:16:14.834Z,98.10
2022-08-26T22:18:45.877Z,98.76
2022-08-26T22:21:24.865Z,99.07
2022-08-26T22:23:52.587Z,98.54
2022-08-26T22:26:27.366Z,98.40
2022-08-26T22:28:55.592Z,97.98
2022-08-26T22:31:36.921Z,97.79
2022-08-26T22:34:08.337Z,97.94
2022-08-26T22:36:36.132Z,98.99
2022-08-26T22:39:10.405Z,99.66
2022-08-26T22:41:40.035Z,99.43
2022-08-26T22:44:07.524Z,99.25
2022-08-26T22:46:36.689Z,99.17
2022-08-26T22:49:04.866Z,100.00
2022-08-26T22:51:32.205Z,100.00
2022-08-26T22:53:59.321Z,100.00
2022-08-26T22:56:26.204Z,100.00
2022-08-26T22:58:53.143Z,100.00
2022-08-26T23:01:20.041Z,100.00
2022-08-26T23:03:47.030Z,100.00
2022-08-26T23:06:13.860Z,100.00
2022-08-26T23:08:41.932Z,100.00
2022-08-26T23:11:10.625Z,100.00
2022-08-26T23:13:39.095Z,100.00
2022-08-26T23:16:09.289Z,100.00
2022-08-26T23:18:36.747Z,100.00
2022-08-26T23:21:03.920Z,100.00
2022-08-26T23:23:31.167Z,100.00
2022-08-26T23:25:58.415Z,100.00
2022-08-26T23:28:26.427Z,100.00
2022-08-26T23:30:54.021Z,100.00
2022-08-26T23:33:21.197Z,100.00
2022-08-26T23:35:48.181Z,100.00
2022-08-26T23:38:16.275Z,100.00
2022-08-26T23:40:43.088Z,100.00
2022-08-26T23:43:13.574Z,100.00
2022-08-26T23:45:40.443Z,100.00
2022-08-26T23:48:07.589Z,100.00
2022-08-26T23:50:53.105Z,100.00
2022-08-26T23:53:22.289Z,100.00
2022-08-26T23:55:51.271Z,100.00
2022-08-26T23:58:19.913Z,100.00
